createdAt,value
2019-04-05T00:01:54.017Z,62.00
2019-04-05T00:04:22.497Z,51.13
2019-04-05T00:06:51.013Z,59.63
2019-04-05T00:09:19.481Z,54.73
2019-04-05T00:11:47.951Z,52.07
2019-04-05T00:14:16.449Z,44.03
2019-04-05T00:16:44.913Z,49.07
2019-04-05T00:19:13.380Z,54.87
2019-04-05T00:21:41.875Z,64.90
2019-04-05T00:24:10.344Z,48.23
2019-04-05T00:26:38.813Z,58.60
2019-04-05T00:29:07.330Z,50.23
2019-04-05T00:31:35.792Z,45.80
2019-04-05T00:34:04.261Z,52.17
2019-04-05T00:36:32.836Z,58.27
2019-04-05T00:39:01.307Z,53.07
2019-04-05T00:41:32.824Z,58.67
2019-04-05T00:44:00.002Z,53.33
2019-04-05T00:46:28.744Z,55.47
2019-04-05T00:48:57.196Z,49.50
2019-04-05T00:51:25.715Z,48.83
2019-04-05T00:53:54.182Z,48.03
2019-04-05T00:56:22.795Z,49.20
2019-04-05T00:58:51.297Z,47.93
2019-04-05T01:01:19.764Z,66.43
2019-04-05T01:03:48.251Z,50.23
2019-04-05T01:06:16.749Z,47.40
2019-04-05T01:08:45.212Z,49.23
2019-04-05T01:11:13.744Z,59.87
2019-04-05T01:13:42.324Z,58.37
2019-04-05T01:16:10.802Z,55.87
2019-04-05T01:18:39.296Z,49.10
2019-04-05T01:21:09.703Z,49.83
2019-04-05T01:23:38.440Z,51.70
2019-04-05T01:26:06.918Z,53.83
2019-04-05T01:28:35.413Z,51.63
2019-04-05T01:31:03.955Z,49.87
2019-04-05T01:33:32.433Z,54.17
2019-04-05T01:36:00.944Z,59.57
2019-04-05T01:38:29.570Z,55.17
2019-04-05T01:40:58.112Z,52.90
2019-04-05T01:43:26.696Z,50.13
2019-04-05T01:45:56.253Z,49.20
2019-04-05T01:48:24.910Z,55.43
2019-04-05T01:50:53.498Z,47.60
2019-04-05T01:53:21.980Z,50.20
2019-04-05T01:55:50.454Z,49.13
2019-04-05T01:58:18.957Z,68.23
2019-04-05T02:00:47.500Z,56.30
2019-04-05T02:03:16.033Z,53.30
2019-04-05T02:05:44.538Z,49.90
2019-04-05T02:08:13.086Z,60.10
2019-04-05T02:10:41.624Z,50.53
2019-04-05T02:13:10.365Z,52.50
2019-04-05T02:15:38.995Z,54.80
2019-04-05T02:18:07.530Z,50.00
2019-04-05T02:20:36.033Z,52.80
2019-04-05T02:23:04.577Z,50.00
2019-04-05T02:25:33.031Z,51.57
2019-04-05T02:28:01.556Z,66.30
2019-04-05T02:30:30.030Z,56.93
2019-04-05T02:32:58.571Z,53.10
2019-04-05T02:35:27.150Z,53.83
2019-04-05T02:37:55.674Z,54.13
2019-04-05T02:40:26.456Z,60.30
2019-04-05T02:42:56.003Z,56.97
2019-04-05T02:45:25.048Z,44.43
2019-04-05T02:47:55.530Z,49.30
2019-04-05T02:50:27.271Z,57.63
2019-04-05T02:52:58.766Z,53.07
2019-04-05T02:55:28.046Z,62.50
2019-04-05T02:57:57.914Z,47.00
2019-04-05T03:00:26.560Z,55.73
2019-04-05T03:02:55.528Z,56.07
2019-04-05T03:05:24.011Z,56.87
2019-04-05T03:07:52.841Z,59.60
2019-04-05T03:10:51.674Z,47.50
2019-04-05T03:13:20.777Z,61.40
2019-04-05T03:15:49.311Z,49.20
2019-04-05T03:18:17.907Z,53.10
2019-04-05T03:20:46.567Z,57.20
2019-04-05T03:23:15.117Z,52.90
2019-04-05T03:25:43.903Z,50.10
2019-04-05T03:28:12.444Z,54.20
2019-04-05T03:30:41.396Z,57.07
2019-04-05T03:33:09.900Z,52.80
2019-04-05T03:35:38.437Z,55.37
2019-04-05T03:38:07.676Z,67.90
2019-04-05T03:40:36.346Z,62.97
2019-04-05T03:43:04.897Z,61.43
2019-04-05T03:45:33.375Z,59.10
2019-04-05T03:48:02.341Z,70.03
2019-04-05T03:50:31.049Z,55.23
2019-04-05T03:53:00.156Z,58.57
2019-04-05T03:55:28.728Z,60.80
2019-04-05T03:57:57.208Z,56.67
2019-04-05T04:00:25.704Z,58.30
2019-04-05T04:02:54.314Z,61.37
2019-04-05T04:05:22.797Z,60.00
2019-04-05T04:07:51.566Z,56.07
2019-04-05T04:10:20.300Z,56.33
2019-04-05T04:12:48.787Z,57.70
2019-04-05T04:15:17.324Z,67.93
2019-04-05T04:17:46.321Z,59.27
2019-04-05T04:20:36.049Z,55.87
2019-04-05T04:23:05.885Z,58.80
2019-04-05T04:25:34.612Z,74.73
2019-04-05T04:28:03.157Z,59.27
2019-04-05T04:30:32.590Z,64.27
2019-04-05T04:33:01.640Z,55.63
2019-04-05T04:35:30.115Z,52.10
2019-04-05T04:37:58.638Z,63.20
2019-04-05T04:40:27.178Z,69.83
2019-04-05T04:42:56.311Z,55.57
2019-04-05T04:45:25.556Z,70.10
2019-04-05T04:47:54.095Z,57.33
2019-04-05T04:50:23.120Z,74.87
2019-04-05T04:52:52.243Z,58.53
2019-04-05T04:55:20.793Z,68.70
2019-04-05T04:57:49.336Z,66.60
2019-04-05T05:00:18.096Z,69.47
2019-04-05T05:02:46.821Z,58.47
2019-04-05T05:05:15.461Z,61.40
2019-04-05T05:07:43.972Z,65.07
2019-04-05T05:10:12.503Z,87.37
2019-04-05T05:12:41.349Z,58.80
2019-04-05T05:15:10.783Z,74.33
2019-04-05T05:17:39.317Z,59.03
2019-04-05T05:20:08.053Z,64.23
2019-04-05T05:22:37.118Z,61.67
2019-04-05T05:25:07.060Z,65.93
2019-04-05T05:27:35.540Z,68.47
2019-04-05T05:30:06.150Z,58.20
2019-04-05T05:32:35.330Z,61.70
2019-04-05T05:35:04.944Z,69.03
2019-04-05T05:37:33.508Z,61.73
2019-04-05T05:40:02.055Z,62.10
2019-04-05T05:42:30.522Z,80.03
2019-04-05T05:44:59.015Z,74.60
2019-04-05T05:47:27.492Z,85.57
2019-04-05T05:49:55.969Z,62.83
2019-04-05T05:52:24.932Z,67.73
2019-04-05T05:54:54.436Z,71.57
2019-04-05T05:57:22.902Z,92.43
2019-04-05T05:59:51.445Z,64.67
2019-04-05T06:02:19.984Z,58.23
2019-04-05T06:04:48.467Z,66.77
2019-04-05T06:07:19.963Z,58.13
2019-04-05T06:09:47.778Z,64.50
2019-04-05T06:12:16.419Z,58.20
2019-04-05T06:14:44.928Z,54.80
2019-04-05T06:17:13.389Z,71.93
2019-04-05T06:19:41.864Z,86.27
2019-04-05T06:22:10.362Z,71.03
2019-04-05T06:24:38.847Z,78.13
2019-04-05T06:27:07.302Z,59.30
2019-04-05T06:29:35.826Z,63.83
2019-04-05T06:32:04.368Z,84.07
2019-04-05T06:34:32.847Z,68.87
2019-04-05T06:37:01.346Z,66.73
2019-04-05T06:39:29.847Z,60.80
2019-04-05T06:41:58.314Z,65.77
2019-04-05T06:44:28.143Z,56.70
2019-04-05T06:46:56.781Z,81.07
2019-04-05T06:49:25.257Z,73.70
2019-04-05T06:51:53.796Z,72.10
2019-04-05T06:54:22.290Z,51.90
2019-04-05T06:56:50.894Z,61.97
2019-04-05T06:59:19.489Z,54.43
2019-04-05T07:01:48.073Z,62.57
2019-04-05T07:04:16.621Z,62.63
2019-04-05T07:06:45.135Z,65.03
2019-04-05T07:09:13.622Z,56.37
2019-04-05T07:11:42.099Z,65.57
2019-04-05T07:14:10.682Z,82.13
2019-04-05T07:16:39.161Z,57.30
2019-04-05T07:19:07.639Z,53.83
2019-04-05T07:21:36.177Z,51.27
2019-04-05T07:24:04.735Z,61.43
2019-04-05T07:26:33.223Z,53.43
2019-04-05T07:29:01.726Z,64.80
2019-04-05T07:31:30.208Z,57.13
2019-04-05T07:33:58.747Z,61.27
2019-04-05T07:36:27.254Z,57.00
2019-04-05T07:38:55.736Z,61.97
2019-04-05T07:41:24.230Z,66.80
2019-04-05T07:43:52.738Z,56.20
2019-04-05T07:46:21.215Z,65.07
2019-04-05T07:48:49.690Z,53.47
2019-04-05T07:51:18.214Z,50.37
2019-04-05T07:53:46.705Z,56.63
2019-04-05T07:56:15.172Z,59.77
2019-04-05T07:58:44.003Z,47.07
2019-04-05T08:01:12.483Z,59.73
2019-04-05T08:03:40.961Z,54.97
2019-04-05T08:06:09.506Z,54.50
2019-04-05T08:08:43.838Z,54.93
2019-04-05T08:11:12.378Z,56.43
2019-04-05T08:13:42.468Z,75.93
2019-04-05T08:16:13.165Z,55.63
2019-04-05T08:18:41.817Z,56.50
2019-04-05T08:21:10.327Z,61.47
2019-04-05T08:23:38.809Z,64.60
2019-04-05T08:26:07.419Z,61.23
2019-04-05T08:28:35.935Z,60.43
2019-04-05T08:31:04.406Z,59.33
2019-04-05T08:33:32.890Z,61.57
2019-04-05T08:36:01.407Z,59.73
2019-04-05T08:38:29.875Z,68.83
2019-04-05T08:40:58.378Z,50.60
2019-04-05T08:43:26.898Z,55.13
2019-04-05T08:45:55.375Z,60.93
2019-04-05T08:48:23.858Z,64.40
2019-04-05T08:50:52.355Z,83.47
2019-04-05T08:53:20.817Z,65.30
2019-04-05T08:55:49.284Z,65.80
2019-04-05T08:58:17.811Z,59.83
2019-04-05T09:00:47.299Z,54.73
2019-04-05T09:03:15.781Z,49.90
2019-04-05T09:05:44.430Z,54.23
2019-04-05T09:08:12.899Z,55.03
2019-04-05T09:10:41.379Z,50.53
2019-04-05T09:13:09.890Z,67.70
2019-04-05T09:15:38.370Z,61.10
2019-04-05T09:18:06.847Z,67.97
2019-04-05T09:20:35.368Z,54.00
2019-04-05T09:23:03.825Z,75.17
2019-04-05T09:25:32.292Z,60.00
2019-04-05T09:28:00.901Z,54.77
2019-04-05T09:30:29.324Z,57.90
2019-04-05T09:32:57.795Z,65.10
2019-04-05T09:35:26.287Z,54.57
2019-04-05T09:37:54.772Z,58.70
2019-04-05T09:40:23.246Z,51.30
2019-04-05T09:42:51.771Z,53.67
2019-04-05T09:45:20.242Z,56.43
2019-04-05T09:47:48.710Z,62.07
2019-04-05T09:50:17.406Z,58.97
2019-04-05T09:52:47.672Z,54.37
2019-04-05T09:55:16.145Z,62.87
2019-04-05T09:57:44.649Z,95.33
2019-04-05T10:00:17.858Z,52.30
2019-04-05T10:02:47.048Z,63.07
2019-04-05T10:05:15.540Z,52.03
2019-04-05T10:07:54.096Z,52.43
2019-04-05T10:10:14.276Z,68.30
2019-04-05T10:12:42.787Z,60.23
2019-04-05T10:15:11.443Z,50.93
2019-04-05T10:17:39.898Z,58.23
2019-04-05T10:20:08.467Z,64.00
2019-04-05T10:22:36.939Z,57.70
2019-04-05T10:25:07.008Z,55.50
2019-04-05T10:27:35.524Z,56.80
2019-04-05T10:30:09.670Z,59.07
2019-04-05T10:32:38.157Z,47.40
2019-04-05T10:35:07.223Z,55.20
2019-04-05T10:37:35.693Z,53.80
2019-04-05T10:40:05.763Z,64.57
2019-04-05T10:42:36.499Z,55.70
2019-04-05T10:45:09.684Z,56.07
2019-04-05T10:47:38.157Z,55.33
2019-04-05T10:50:09.061Z,61.17
2019-04-05T10:52:37.608Z,50.03
2019-04-05T10:55:07.219Z,63.83
2019-04-05T10:57:35.733Z,52.77
2019-04-05T11:00:06.846Z,51.10
2019-04-05T11:02:35.392Z,56.23
2019-04-05T11:05:04.109Z,56.70
2019-04-05T11:07:34.968Z,55.07
2019-04-05T11:10:02.937Z,49.30
2019-04-05T11:12:31.446Z,60.17
2019-04-05T11:14:59.909Z,58.33
2019-04-05T11:17:28.375Z,64.60
2019-04-05T11:19:56.870Z,54.27
2019-04-05T11:22:25.336Z,44.50
2019-04-05T11:24:53.812Z,49.93
2019-04-05T11:27:22.346Z,51.97
2019-04-05T11:29:50.831Z,54.63
2019-04-05T11:32:19.439Z,52.53
2019-04-05T11:34:48.012Z,56.27
2019-04-05T11:37:16.881Z,51.67
2019-04-05T11:39:48.565Z,53.30
2019-04-05T11:42:17.779Z,59.63
2019-04-05T11:44:47.323Z,50.73
2019-04-05T11:47:19.028Z,40.27
2019-04-05T11:49:46.085Z,48.67
2019-04-05T11:52:14.569Z,37.97
2019-04-05T11:54:43.831Z,44.63
2019-04-05T11:57:15.950Z,51.27
2019-04-05T11:59:44.421Z,41.50
2019-04-05T12:02:16.956Z,49.60
2019-04-05T12:04:45.477Z,37.57
2019-04-05T12:07:14.254Z,53.37
2019-04-05T12:09:42.729Z,44.93
2019-04-05T12:12:11.309Z,38.73
2019-04-05T12:14:39.847Z,55.73
2019-04-05T12:17:09.687Z,54.77
2019-04-05T12:19:38.400Z,39.77
2019-04-05T12:22:09.094Z,44.83
2019-04-05T12:24:37.543Z,39.83
2019-04-05T12:27:06.044Z,41.63
2019-04-05T12:29:34.516Z,37.33
2019-04-05T12:32:03.053Z,38.47
2019-04-05T12:34:31.626Z,47.33
2019-04-05T12:37:00.087Z,45.23
2019-04-05T12:39:28.548Z,48.33
2019-04-05T12:41:57.067Z,35.57
2019-04-05T12:44:25.527Z,40.83
2019-04-05T12:46:53.994Z,40.93
2019-04-05T12:49:22.500Z,44.17
2019-04-05T12:51:50.986Z,51.27
2019-04-05T12:54:19.430Z,41.40
2019-04-05T12:56:47.929Z,35.43
2019-04-05T12:59:16.405Z,37.53
2019-04-05T13:01:45.657Z,40.50
2019-04-05T13:04:15.143Z,47.10
2019-04-05T13:06:43.603Z,35.43
2019-04-05T13:09:13.317Z,41.23
2019-04-05T13:11:42.003Z,38.60
2019-04-05T13:14:10.656Z,32.60
2019-04-05T13:16:39.127Z,40.63
2019-04-05T13:19:07.643Z,37.63
2019-04-05T13:21:36.110Z,36.00
2019-04-05T13:24:07.054Z,29.77
2019-04-05T13:26:36.767Z,26.97
2019-04-05T13:29:05.130Z,30.43
2019-04-05T13:31:33.600Z,29.63
2019-04-05T13:34:02.096Z,27.10
2019-04-05T13:36:30.575Z,39.13
2019-04-05T13:39:00.358Z,25.10
2019-04-05T13:41:31.267Z,31.80
2019-04-05T13:44:01.641Z,31.33
2019-04-05T13:46:29.531Z,28.77
2019-04-05T13:48:58.024Z,27.20
2019-04-05T13:51:28.032Z,30.80
2019-04-05T13:53:56.690Z,32.87
2019-04-05T13:56:25.278Z,30.73
2019-04-05T13:58:53.755Z,32.03
2019-04-05T14:01:22.227Z,35.57
2019-04-05T14:03:50.788Z,38.90
2019-04-05T14:06:19.290Z,35.60
2019-04-05T14:08:47.764Z,29.43
2019-04-05T14:11:16.396Z,30.47
2019-04-05T14:13:44.855Z,29.70
2019-04-05T14:16:13.395Z,48.20
2019-04-05T14:18:45.188Z,30.53
2019-04-05T14:21:12.201Z,30.33
2019-04-05T14:23:40.670Z,29.17
2019-04-05T14:26:10.076Z,30.87
2019-04-05T14:28:38.541Z,32.90
2019-04-05T14:31:07.011Z,50.20
2019-04-05T14:33:35.525Z,35.10
2019-04-05T14:36:03.995Z,34.10
2019-04-05T14:38:32.468Z,29.93
2019-04-05T14:41:01.055Z,31.03
2019-04-05T14:43:29.522Z,33.80
2019-04-05T14:45:57.988Z,29.70
2019-04-05T14:48:28.021Z,39.60
2019-04-05T14:50:57.918Z,25.70
2019-04-05T14:53:27.027Z,33.33
2019-04-05T14:55:59.059Z,32.00
2019-04-05T14:58:25.772Z,32.27
2019-04-05T15:00:54.255Z,29.60
2019-04-05T15:03:22.844Z,32.27
2019-04-05T15:05:51.326Z,30.80
2019-04-05T15:08:20.673Z,30.60
2019-04-05T15:10:51.350Z,29.83
2019-04-05T15:13:20.486Z,35.33
2019-04-05T15:15:48.956Z,26.77
2019-04-05T15:18:19.601Z,26.27
2019-04-05T15:20:47.655Z,33.03
2019-04-05T15:23:16.128Z,31.47
2019-04-05T15:25:44.664Z,26.43
2019-04-05T15:28:13.140Z,34.60
2019-04-05T15:30:41.610Z,24.90
2019-04-05T15:33:10.115Z,29.13
2019-04-05T15:35:38.584Z,29.40
2019-04-05T15:38:07.055Z,31.43
2019-04-05T15:40:35.559Z,30.07
2019-04-05T15:43:04.021Z,28.40
2019-04-05T15:45:32.490Z,30.03
2019-04-05T15:48:01.004Z,32.00
2019-04-05T15:50:29.502Z,32.10
2019-04-05T15:52:59.730Z,35.23
2019-04-05T15:55:28.207Z,43.47
2019-04-05T15:57:56.669Z,34.03
2019-04-05T16:00:40.066Z,29.50
2019-04-05T16:03:08.521Z,39.33
2019-04-05T16:05:36.995Z,47.87
2019-04-05T16:08:05.575Z,52.50
2019-04-05T16:10:34.052Z,63.63
2019-04-05T16:13:02.543Z,55.90
2019-04-05T16:15:31.180Z,57.00
2019-04-05T16:17:59.653Z,57.13
2019-04-05T16:20:28.196Z,66.83
2019-04-05T16:22:56.706Z,62.20
2019-04-05T16:25:25.189Z,59.33
2019-04-05T16:27:53.671Z,63.70
2019-04-05T16:30:22.194Z,66.47
2019-04-05T16:32:50.666Z,64.23
2019-04-05T16:35:19.212Z,55.30
2019-04-05T16:37:47.762Z,62.97
2019-04-05T16:40:16.765Z,80.27
2019-04-05T16:42:45.233Z,63.53
2019-04-05T16:45:14.271Z,71.90
2019-04-05T16:47:42.741Z,70.70
2019-04-05T16:50:11.768Z,85.17
2019-04-05T16:52:45.091Z,72.80
2019-04-05T16:55:10.607Z,71.13
2019-04-05T16:57:39.161Z,73.13
2019-04-05T17:00:12.727Z,74.03
2019-04-05T17:02:41.275Z,77.50
2019-04-05T17:05:09.878Z,82.13
2019-04-05T17:07:38.391Z,91.53
2019-04-05T17:10:07.493Z,89.23
2019-04-05T17:12:36.079Z,86.23
2019-04-05T17:15:07.283Z,87.63
2019-04-05T17:17:36.231Z,93.13
2019-04-05T17:20:05.941Z,91.40
2019-04-05T17:22:34.453Z,85.70
2019-04-05T17:25:03.213Z,91.23
2019-04-05T17:27:31.683Z,96.37
2019-04-05T17:30:00.190Z,92.70
2019-04-05T17:32:28.677Z,93.03
2019-04-05T17:34:57.139Z,96.90
2019-04-05T17:37:26.829Z,100.30
2019-04-05T17:39:55.616Z,100.37
2019-04-05T17:42:24.083Z,108.67
2019-04-05T17:44:52.634Z,105.63
2019-04-05T17:47:21.100Z,99.57
2019-04-05T17:49:49.575Z,96.57
2019-04-05T17:52:18.094Z,92.07
2019-04-05T17:54:46.562Z,107.93
2019-04-05T17:57:15.172Z,102.97
2019-04-05T17:59:44.207Z,107.63
2019-04-05T18:02:12.687Z,108.93
2019-04-05T18:04:41.228Z,110.23
2019-04-05T18:07:09.893Z,108.33
2019-04-05T18:09:38.381Z,98.37
2019-04-05T18:12:06.859Z,105.53
2019-04-05T18:14:35.419Z,125.40
2019-04-05T18:17:03.984Z,100.70
2019-04-05T18:19:32.772Z,110.83
2019-04-05T18:22:01.292Z,111.17
2019-04-05T18:24:29.774Z,109.10
2019-04-05T18:26:58.309Z,108.53
2019-04-05T18:29:26.798Z,109.93
2019-04-05T18:31:55.282Z,115.93
2019-04-05T18:34:23.760Z,111.63
2019-04-05T18:36:52.279Z,103.53
2019-04-05T18:39:20.751Z,103.00
2019-04-05T18:41:49.225Z,110.20
2019-04-05T18:44:17.736Z,105.30
2019-04-05T18:46:46.214Z,115.90
2019-04-05T18:49:14.682Z,121.47
2019-04-05T18:51:43.255Z,130.27
2019-04-05T18:54:11.732Z,111.77
2019-04-05T18:56:40.227Z,117.83
2019-04-05T18:59:08.754Z,93.13
2019-04-05T19:01:37.246Z,123.50
2019-04-05T19:04:05.835Z,121.53
2019-04-05T19:06:34.444Z,121.13
2019-04-05T19:09:04.565Z,120.07
2019-04-05T19:11:33.050Z,135.43
2019-04-05T19:14:01.758Z,93.80
2019-04-05T19:16:30.213Z,110.23
2019-04-05T19:18:58.736Z,121.77
2019-04-05T19:21:27.673Z,105.10
2019-04-05T19:23:56.137Z,133.97
2019-04-05T19:26:24.616Z,132.10
2019-04-05T19:28:53.133Z,123.43
2019-04-05T19:48:53.289Z,196.93
2019-04-05T19:51:21.810Z,168.80
2019-04-05T19:54:00.675Z,160.07
2019-04-05T19:56:20.475Z,135.60
2019-04-05T19:58:49.033Z,163.57
2019-04-05T20:01:17.474Z,187.30
2019-04-05T20:03:45.951Z,196.83
2019-04-05T20:06:14.504Z,197.50
2019-04-05T20:08:42.989Z,190.07
2019-04-05T20:11:11.478Z,195.00
2019-04-05T20:13:39.992Z,145.50
2019-04-05T20:16:08.485Z,134.50
2019-04-05T20:18:36.953Z,134.40
2019-04-05T20:21:05.470Z,129.07
2019-04-05T20:23:33.948Z,123.40
2019-04-05T20:26:02.462Z,132.03
2019-04-05T20:28:30.928Z,131.70
2019-04-05T20:30:59.415Z,128.87
2019-04-05T20:33:27.885Z,138.23
2019-04-05T20:35:56.403Z,135.30
2019-04-05T20:38:24.879Z,129.33
2019-04-05T20:40:53.360Z,133.93
2019-04-05T20:43:21.882Z,130.63
2019-04-05T20:45:50.359Z,151.27
2019-04-05T20:48:18.832Z,130.60
2019-04-05T20:50:47.341Z,143.90
2019-04-05T20:53:15.824Z,142.00
2019-04-05T20:55:44.301Z,121.90
2019-04-05T20:58:12.811Z,133.40
2019-04-05T21:00:41.288Z,121.03
2019-04-05T21:03:09.745Z,133.43
2019-04-05T21:05:38.261Z,124.30
2019-04-05T21:08:06.731Z,125.07
2019-04-05T21:10:35.200Z,116.50
2019-04-05T21:13:04.151Z,128.77
2019-04-05T21:15:32.702Z,123.93
2019-04-05T21:18:01.166Z,128.13
2019-04-05T21:20:29.690Z,122.50
2019-04-05T21:22:59.245Z,135.83
2019-04-05T21:25:27.722Z,126.60
2019-04-05T21:27:56.214Z,135.83
2019-04-05T21:30:24.681Z,144.70
2019-04-05T21:32:53.177Z,130.17
2019-04-05T21:35:21.696Z,134.50
2019-04-05T21:37:50.241Z,139.80
2019-04-05T21:40:19.008Z,128.00
2019-04-05T21:42:47.529Z,132.83
2019-04-05T21:45:16.002Z,136.73
2019-04-05T21:47:44.482Z,139.83
2019-04-05T21:50:13.053Z,138.67
2019-04-05T21:52:41.523Z,141.70
2019-04-05T21:55:10.064Z,127.03
2019-04-05T21:57:38.590Z,142.87
2019-04-05T22:00:20.375Z,123.10
2019-04-05T22:02:48.746Z,134.90
2019-04-05T22:05:17.236Z,124.37
2019-04-05T22:07:45.707Z,128.00
2019-04-05T22:10:14.287Z,126.50
2019-04-05T22:12:42.773Z,133.27
2019-04-05T22:15:11.249Z,127.60
2019-04-05T22:17:39.772Z,124.00
2019-04-05T22:20:08.417Z,128.93
2019-04-05T22:22:36.890Z,131.73
2019-04-05T22:25:07.021Z,141.10
2019-04-05T22:27:35.485Z,138.90
2019-04-05T22:30:05.807Z,142.13
2019-04-05T22:32:34.331Z,133.40
2019-04-05T22:35:02.807Z,132.23
2019-04-05T22:37:31.288Z,153.13
2019-04-05T22:39:59.793Z,151.90
2019-04-05T22:42:28.276Z,137.83
2019-04-05T22:44:56.744Z,156.47
2019-04-05T22:47:25.241Z,165.87
2019-04-05T22:49:53.715Z,154.17
2019-04-05T22:52:22.185Z,136.90
2019-04-05T22:54:50.691Z,160.60
2019-04-05T22:57:19.175Z,147.27
2019-04-05T22:59:47.647Z,155.33
2019-04-05T23:02:16.148Z,153.73
2019-04-05T23:04:44.617Z,146.03
2019-04-05T23:07:13.167Z,153.80
2019-04-05T23:09:41.735Z,162.43
2019-04-05T23:12:10.221Z,141.03
2019-04-05T23:14:38.822Z,134.77
2019-04-05T23:17:07.355Z,157.93
2019-04-05T23:19:35.856Z,149.20
2019-04-05T23:22:04.395Z,142.07
2019-04-05T23:24:32.985Z,129.20
2019-04-05T23:27:02.471Z,144.53
2019-04-05T23:29:30.956Z,137.20
2019-04-05T23:31:59.472Z,141.57
2019-04-05T23:34:27.949Z,129.37
2019-04-05T23:36:56.408Z,142.90
2019-04-05T23:39:24.922Z,129.70
2019-04-05T23:41:53.372Z,130.37
2019-04-05T23:44:21.831Z,136.53
2019-04-05T23:46:52.609Z,124.13
2019-04-05T23:49:20.535Z,140.77
2019-04-05T23:51:49.016Z,136.67
2019-04-05T23:54:17.520Z,129.43
2019-04-05T23:56:45.986Z,138.83
2019-04-05T23:59:14.611Z,129.90
